createdAt,value
2019-02-20T00:00:13.634Z,21.80
2019-02-20T00:02:42.245Z,17.87
2019-02-20T00:05:10.853Z,22.87
2019-02-20T00:07:39.442Z,20.87
2019-02-20T00:10:08.325Z,19.80
2019-02-20T00:12:36.794Z,21.60
2019-02-20T00:15:06.421Z,24.57
2019-02-20T00:17:34.889Z,25.87
2019-02-20T00:20:04.029Z,27.57
2019-02-20T00:22:39.977Z,29.57
2019-02-20T00:25:02.921Z,31.77
2019-02-20T00:27:31.393Z,28.67
2019-02-20T00:29:59.961Z,31.07
2019-02-20T00:32:28.443Z,32.30
2019-02-20T00:34:58.517Z,31.80
2019-02-20T00:37:27.024Z,25.87
2019-02-20T00:39:55.497Z,25.23
2019-02-20T00:42:24.042Z,22.00
2019-02-20T00:44:57.263Z,22.20
2019-02-20T00:47:43.554Z,24.43
2019-02-20T00:50:13.385Z,23.47
2019-02-20T00:52:49.634Z,24.27
2019-02-20T00:55:13.754Z,23.57
2019-02-20T00:57:42.378Z,25.00
2019-02-20T01:00:12.833Z,23.27
2019-02-20T01:02:41.445Z,20.10
2019-02-20T01:05:10.103Z,31.60
2019-02-20T01:07:38.769Z,22.60
2019-02-20T01:10:08.661Z,25.30
2019-02-20T01:12:37.312Z,25.73
2019-02-20T01:15:08.902Z,22.90
2019-02-20T01:17:37.513Z,24.97
2019-02-20T01:20:08.660Z,27.60
2019-02-20T01:22:37.197Z,23.97
2019-02-20T01:25:06.509Z,20.43
2019-02-20T01:27:35.087Z,22.37
2019-02-20T01:30:04.869Z,21.00
2019-02-20T01:32:33.340Z,19.23
2019-02-20T01:35:01.920Z,21.87
2019-02-20T01:37:30.457Z,19.70
2019-02-20T01:40:00.258Z,18.03
2019-02-20T01:42:28.772Z,20.37
2019-02-20T01:44:58.922Z,19.73
2019-02-20T01:47:28.797Z,19.43
2019-02-20T01:49:57.388Z,23.13
2019-02-20T01:52:25.867Z,19.53
2019-02-20T01:54:54.412Z,19.87
2019-02-20T01:57:22.995Z,24.03
2019-02-20T01:59:51.541Z,23.13
2019-02-20T02:02:20.193Z,21.47
2019-02-20T02:04:48.732Z,20.33
2019-02-20T02:07:17.205Z,20.50
2019-02-20T02:09:45.749Z,18.93
2019-02-20T02:12:14.317Z,19.10
2019-02-20T02:14:42.868Z,21.80
2019-02-20T02:17:11.410Z,24.40
2019-02-20T02:19:40.065Z,25.30
2019-02-20T02:22:08.529Z,21.50
2019-02-20T02:24:37.073Z,24.53
2019-02-20T02:27:05.814Z,22.43
2019-02-20T02:29:34.397Z,19.37
2019-02-20T02:32:02.937Z,19.17
2019-02-20T02:34:31.554Z,21.50
2019-02-20T02:37:00.021Z,21.93
2019-02-20T02:39:28.566Z,17.23
2019-02-20T02:41:57.219Z,20.43
2019-02-20T02:44:25.891Z,22.57
2019-02-20T02:46:54.370Z,22.97
2019-02-20T02:49:22.934Z,22.77
2019-02-20T02:51:51.471Z,21.00
2019-02-20T02:54:20.011Z,19.10
2019-02-20T02:56:48.622Z,23.17
2019-02-20T02:59:17.147Z,21.20
2019-02-20T03:01:45.765Z,22.97
2019-02-20T03:04:14.415Z,20.30
2019-02-20T03:06:42.958Z,26.23
2019-02-20T03:09:11.641Z,23.23
2019-02-20T03:11:40.152Z,23.57
2019-02-20T03:14:08.748Z,24.00
2019-02-20T03:16:37.298Z,26.30
2019-02-20T03:19:05.937Z,22.23
2019-02-20T03:21:34.568Z,27.47
2019-02-20T03:24:03.093Z,18.30
2019-02-20T03:26:31.741Z,20.07
2019-02-20T03:29:00.281Z,21.60
2019-02-20T03:31:28.842Z,19.80
2019-02-20T03:33:57.478Z,18.07
2019-02-20T03:36:26.028Z,18.57
2019-02-20T03:38:54.558Z,17.03
2019-02-20T03:41:23.121Z,18.60
2019-02-20T03:43:51.661Z,17.13
2019-02-20T03:46:20.204Z,20.67
2019-02-20T03:48:48.789Z,18.93
2019-02-20T03:51:17.325Z,18.23
2019-02-20T03:53:51.478Z,15.90
2019-02-20T03:56:17.273Z,17.00
2019-02-20T03:58:45.955Z,17.20
2019-02-20T04:01:14.503Z,18.17
2019-02-20T04:03:43.076Z,18.37
2019-02-20T04:06:11.621Z,14.30
2019-02-20T04:08:40.225Z,18.73
2019-02-20T04:11:08.734Z,19.20
2019-02-20T04:13:37.278Z,17.63
2019-02-20T04:16:05.813Z,19.63
2019-02-20T04:18:34.446Z,20.03
2019-02-20T04:21:03.057Z,19.00
2019-02-20T04:23:31.517Z,20.37
2019-02-20T04:26:00.042Z,17.30
2019-02-20T04:28:28.649Z,13.70
2019-02-20T04:30:57.195Z,22.97
2019-02-20T04:33:25.845Z,18.37
2019-02-20T04:35:54.385Z,18.47
2019-02-20T04:38:22.923Z,20.70
2019-02-20T04:40:51.489Z,19.97
2019-02-20T04:43:19.950Z,16.97
2019-02-20T04:45:48.557Z,18.93
2019-02-20T04:48:17.283Z,21.83
2019-02-20T04:50:45.814Z,14.90
2019-02-20T04:53:15.345Z,21.10
2019-02-20T04:55:43.851Z,17.67
2019-02-20T04:58:18.241Z,19.37
2019-02-20T05:00:46.781Z,18.60
2019-02-20T05:03:15.426Z,20.47
2019-02-20T05:05:44.097Z,24.83
2019-02-20T05:08:12.633Z,18.77
2019-02-20T05:10:41.205Z,22.60
2019-02-20T05:13:09.787Z,20.37
2019-02-20T05:15:38.358Z,23.00
2019-02-20T05:18:07.078Z,23.13
2019-02-20T05:20:35.691Z,21.73
2019-02-20T05:23:04.304Z,23.03
2019-02-20T05:25:32.945Z,20.30
2019-02-20T05:28:01.491Z,22.43
2019-02-20T05:30:30.103Z,21.63
2019-02-20T05:32:58.754Z,25.37
2019-02-20T05:35:27.301Z,24.87
2019-02-20T05:37:55.846Z,25.53
2019-02-20T05:40:24.418Z,24.87
2019-02-20T05:42:52.964Z,29.17
2019-02-20T05:45:21.575Z,27.00
2019-02-20T05:47:50.145Z,30.43
2019-02-20T05:50:18.682Z,24.33
2019-02-20T05:52:47.261Z,31.50
2019-02-20T05:55:15.913Z,22.83
2019-02-20T05:57:44.455Z,22.67
2019-02-20T06:00:13.826Z,22.30
2019-02-20T06:02:42.389Z,24.80
2019-02-20T06:05:11.070Z,22.63
2019-02-20T06:07:39.616Z,27.63
2019-02-20T06:10:09.368Z,28.20
2019-02-20T06:12:37.925Z,29.90
2019-02-20T06:15:08.904Z,26.17
2019-02-20T06:17:37.492Z,29.90
2019-02-20T06:20:10.747Z,27.40
2019-02-20T06:22:39.372Z,31.40
2019-02-20T06:25:08.013Z,33.27
2019-02-20T06:27:36.490Z,31.67
2019-02-20T06:30:08.142Z,26.93
2019-02-20T06:32:36.645Z,28.73
2019-02-20T06:35:06.354Z,33.80
2019-02-20T06:37:34.834Z,32.07
2019-02-20T06:40:03.741Z,31.43
2019-02-20T06:42:32.309Z,27.83
2019-02-20T06:45:00.856Z,27.47
2019-02-20T06:47:29.422Z,29.87
2019-02-20T06:49:57.964Z,28.70
2019-02-20T06:52:26.504Z,33.87
2019-02-20T06:54:55.007Z,36.70
2019-02-20T06:57:23.551Z,37.93
2019-02-20T06:59:52.335Z,39.10
2019-02-20T07:02:21.385Z,37.37
2019-02-20T07:05:25.788Z,39.60
2019-02-20T07:08:03.337Z,36.07
2019-02-20T07:11:03.166Z,38.03
2019-02-20T07:13:34.822Z,25.60
2019-02-20T07:16:24.025Z,35.30
2019-02-20T07:19:04.022Z,35.77
2019-02-20T07:21:50.326Z,45.57
2019-02-20T07:24:30.578Z,47.83
2019-02-20T07:27:13.957Z,47.93
2019-02-20T07:29:44.576Z,39.47
2019-02-20T07:32:15.353Z,34.73
2019-02-20T07:34:43.893Z,28.63
2019-02-20T07:37:12.537Z,32.17
2019-02-20T07:39:41.005Z,27.50
2019-02-20T07:42:09.494Z,31.57
2019-02-20T07:44:38.155Z,24.43
2019-02-20T07:47:06.764Z,28.93
2019-02-20T07:49:35.306Z,28.67
2019-02-20T07:52:04.053Z,32.33
2019-02-20T07:54:32.670Z,24.70
2019-02-20T07:57:01.222Z,27.13
2019-02-20T07:59:29.815Z,26.37
2019-02-20T08:01:58.359Z,24.03
2019-02-20T08:04:26.981Z,29.57
2019-02-20T08:06:55.633Z,29.77
2019-02-20T08:09:24.101Z,27.63
2019-02-20T08:11:52.565Z,23.47
2019-02-20T08:14:21.064Z,23.43
2019-02-20T08:16:52.326Z,19.10
2019-02-20T08:19:21.798Z,21.17
2019-02-20T08:21:50.077Z,20.43
2019-02-20T08:24:18.549Z,21.33
2019-02-20T08:26:47.087Z,20.33
2019-02-20T08:29:15.666Z,21.33
2019-02-20T08:31:44.341Z,25.00
2019-02-20T08:34:12.826Z,20.40
2019-02-20T08:36:41.395Z,20.87
2019-02-20T08:39:09.937Z,20.47
2019-02-20T08:41:44.622Z,19.43
2019-02-20T08:44:13.205Z,15.93
2019-02-20T08:46:41.822Z,10.60
2019-02-20T08:49:10.449Z,12.63
2019-02-20T08:51:39.106Z,14.67
2019-02-20T08:54:07.648Z,18.30
2019-02-20T08:56:36.269Z,16.73
2019-02-20T08:59:04.979Z,18.90
2019-02-20T09:01:33.741Z,16.00
2019-02-20T09:04:02.271Z,16.60
2019-02-20T09:06:30.835Z,22.83
2019-02-20T09:08:59.445Z,20.50
2019-02-20T09:11:27.984Z,19.20
2019-02-20T09:13:56.566Z,20.37
2019-02-20T09:16:25.034Z,26.33
2019-02-20T09:18:53.577Z,21.63
2019-02-20T09:21:22.078Z,21.30
2019-02-20T09:23:50.726Z,19.23
2019-02-20T09:26:19.265Z,21.83
2019-02-20T09:28:47.886Z,19.67
2019-02-20T09:31:16.430Z,16.60
2019-02-20T09:33:44.971Z,18.20
2019-02-20T09:36:13.541Z,18.80
2019-02-20T09:38:42.086Z,19.00
2019-02-20T09:41:13.626Z,18.50
2019-02-20T09:43:42.600Z,17.93
2019-02-20T09:46:11.077Z,19.23
2019-02-20T09:48:39.646Z,17.40
2019-02-20T09:51:08.261Z,19.93
2019-02-20T09:53:36.802Z,18.80
2019-02-20T09:56:05.510Z,18.00
2019-02-20T09:58:33.982Z,15.07
2019-02-20T10:01:03.066Z,13.07
2019-02-20T10:03:31.785Z,12.10
2019-02-20T10:06:00.328Z,12.60
2019-02-20T10:08:28.866Z,16.97
2019-02-20T10:10:57.442Z,16.23
2019-02-20T10:13:25.986Z,15.70
2019-02-20T10:15:54.530Z,15.37
2019-02-20T10:18:23.029Z,19.43
2019-02-20T10:20:51.569Z,19.97
2019-02-20T10:23:20.036Z,19.97
2019-02-20T10:25:48.611Z,16.27
2019-02-20T10:28:17.153Z,15.77
2019-02-20T10:30:45.702Z,17.53
2019-02-20T10:33:14.265Z,19.63
2019-02-20T10:35:42.809Z,15.40
2019-02-20T10:38:11.277Z,15.03
2019-02-20T10:40:39.854Z,15.83
2019-02-20T10:43:08.398Z,13.77
2019-02-20T10:45:36.941Z,17.73
2019-02-20T10:48:05.589Z,13.70
2019-02-20T10:50:34.193Z,14.63
2019-02-20T10:53:02.816Z,18.70
2019-02-20T10:55:31.458Z,19.17
2019-02-20T10:58:00.065Z,16.30
2019-02-20T11:00:29.177Z,18.27
2019-02-20T11:02:57.832Z,24.07
2019-02-20T11:05:26.432Z,18.83
2019-02-20T11:07:54.973Z,21.17
2019-02-20T11:10:24.181Z,19.97
2019-02-20T11:12:52.791Z,19.60
2019-02-20T11:15:21.337Z,30.53
2019-02-20T11:17:49.834Z,16.00
2019-02-20T11:20:18.447Z,17.47
2019-02-20T11:22:48.571Z,13.03
2019-02-20T11:25:17.238Z,15.17
2019-02-20T11:27:45.917Z,17.73
2019-02-20T11:30:17.326Z,19.47
2019-02-20T11:32:46.030Z,24.03
2019-02-20T11:35:14.737Z,20.97
2019-02-20T11:37:43.349Z,17.43
2019-02-20T11:40:11.851Z,15.10
2019-02-20T11:42:40.634Z,18.43
2019-02-20T11:45:16.850Z,13.03
2019-02-20T11:47:45.387Z,17.40
2019-02-20T11:50:14.167Z,17.67
2019-02-20T11:52:43.191Z,16.37
2019-02-20T11:55:15.239Z,16.93
2019-02-20T11:57:44.595Z,20.80
2019-02-20T12:00:20.286Z,14.10
2019-02-20T12:02:48.901Z,18.90
2019-02-20T12:05:17.609Z,32.30
2019-02-20T12:07:46.168Z,17.20
2019-02-20T12:10:16.420Z,19.43
2019-02-20T12:12:45.197Z,16.10
2019-02-20T12:15:13.908Z,18.23
2019-02-20T12:17:42.676Z,26.17
2019-02-20T12:20:11.462Z,13.97
2019-02-20T12:22:40.112Z,17.27
2019-02-20T12:25:09.995Z,14.37
2019-02-20T12:27:38.757Z,13.90
2019-02-20T12:30:09.686Z,15.73
2019-02-20T12:32:38.444Z,15.47
2019-02-20T12:35:08.426Z,14.00
2019-02-20T12:37:36.989Z,13.17
2019-02-20T12:40:07.676Z,18.23
2019-02-20T12:42:36.284Z,32.10
2019-02-20T12:45:06.843Z,23.30
2019-02-20T12:47:35.463Z,15.33
2019-02-20T12:50:05.838Z,25.57
2019-02-20T12:52:34.574Z,20.60
2019-02-20T12:55:03.439Z,16.27
2019-02-20T12:57:32.019Z,19.57
2019-02-20T13:00:00.525Z,18.57
2019-02-20T13:02:28.994Z,19.30
2019-02-20T13:04:57.605Z,14.63
2019-02-20T13:07:26.246Z,13.60
2019-02-20T13:09:54.785Z,11.13
2019-02-20T13:12:23.327Z,14.67
2019-02-20T13:14:51.947Z,21.93
2019-02-20T13:17:20.455Z,16.40
2019-02-20T13:19:49.063Z,14.60
2019-02-20T13:22:17.709Z,12.67
2019-02-20T13:24:46.248Z,13.07
2019-02-20T13:27:22.551Z,12.37
2019-02-20T13:29:45.253Z,14.30
2019-02-20T13:32:13.810Z,20.30
2019-02-20T13:34:42.345Z,21.80
2019-02-20T13:37:11.060Z,14.47
2019-02-20T13:39:39.601Z,12.80
2019-02-20T13:42:08.170Z,16.93
2019-02-20T13:44:36.917Z,15.47
2019-02-20T13:47:05.530Z,13.50
2019-02-20T13:49:34.141Z,11.43
2019-02-20T13:52:03.029Z,10.23
2019-02-20T13:54:31.642Z,10.20
2019-02-20T13:57:02.180Z,12.27
2019-02-20T13:59:30.473Z,12.20
2019-02-20T14:01:59.023Z,15.70
2019-02-20T14:04:27.555Z,9.13
2019-02-20T14:06:56.222Z,7.80
2019-02-20T14:09:24.768Z,10.07
2019-02-20T14:11:53.370Z,7.73
2019-02-20T14:14:21.949Z,7.07
2019-02-20T14:16:50.590Z,10.00
2019-02-20T14:19:19.194Z,13.67
2019-02-20T14:21:47.969Z,12.87
2019-02-20T14:24:16.517Z,14.67
2019-02-20T14:26:45.209Z,21.87
2019-02-20T14:29:13.854Z,19.27
2019-02-20T14:31:42.830Z,14.83
2019-02-20T14:34:11.721Z,17.80
2019-02-20T14:36:40.374Z,18.13
2019-02-20T14:39:08.981Z,16.13
2019-02-20T14:41:37.597Z,15.13
2019-02-20T14:44:06.270Z,19.63
2019-02-20T14:46:36.956Z,16.53
2019-02-20T14:49:05.417Z,16.30
2019-02-20T14:51:33.999Z,17.23
2019-02-20T14:54:02.543Z,17.47
2019-02-20T14:56:31.158Z,18.23
2019-02-20T14:58:59.728Z,16.93
2019-02-20T15:01:28.335Z,17.37
2019-02-20T15:03:56.950Z,18.10
2019-02-20T15:06:25.888Z,22.13
2019-02-20T15:08:54.430Z,18.73
2019-02-20T15:11:23.044Z,19.63
2019-02-20T15:13:53.537Z,16.93
2019-02-20T15:16:21.859Z,26.17
2019-02-20T15:18:50.392Z,20.90
2019-02-20T15:21:18.981Z,23.20
2019-02-20T15:23:47.593Z,24.77
2019-02-20T15:26:16.137Z,21.93
2019-02-20T15:28:44.797Z,25.17
2019-02-20T15:31:13.341Z,18.23
2019-02-20T15:33:42.245Z,20.00
2019-02-20T15:36:10.984Z,19.07
2019-02-20T15:38:40.003Z,15.90
2019-02-20T15:41:08.686Z,23.23
2019-02-20T15:43:37.332Z,23.27
2019-02-20T15:46:06.030Z,18.40
2019-02-20T15:48:34.565Z,23.87
2019-02-20T15:51:03.146Z,22.63
2019-02-20T15:53:31.685Z,23.23
2019-02-20T15:56:00.533Z,25.97
2019-02-20T15:58:29.257Z,27.37
2019-02-20T16:00:57.873Z,25.17
2019-02-20T16:03:26.498Z,28.97
2019-02-20T16:05:55.202Z,26.30
2019-02-20T16:08:23.764Z,31.07
2019-02-20T16:10:52.321Z,20.47
2019-02-20T16:13:21.161Z,27.07
2019-02-20T16:15:49.851Z,26.37
2019-02-20T16:18:19.942Z,24.67
2019-02-20T16:20:48.721Z,25.07
2019-02-20T16:23:17.338Z,23.97
2019-02-20T16:25:45.949Z,23.17
2019-02-20T16:28:14.577Z,22.40
2019-02-20T16:30:43.198Z,21.13
2019-02-20T16:33:11.810Z,27.87
2019-02-20T16:35:40.538Z,27.07
2019-02-20T16:38:09.155Z,29.83
2019-02-20T16:40:37.710Z,47.80
2019-02-20T16:43:06.463Z,61.07
2019-02-20T16:45:35.519Z,47.57
2019-02-20T16:48:04.336Z,52.50
2019-02-20T16:50:33.071Z,49.47
2019-02-20T16:53:01.613Z,50.13
2019-02-20T16:55:30.291Z,75.83
2019-02-20T16:57:58.963Z,77.93
2019-02-20T17:00:27.766Z,78.83
2019-02-20T17:02:56.580Z,64.47
2019-02-20T17:05:25.306Z,68.80
2019-02-20T17:07:53.998Z,50.10
2019-02-20T17:10:22.821Z,56.30
2019-02-20T17:12:51.538Z,55.90
2019-02-20T17:15:20.230Z,74.93
2019-02-20T17:17:49.058Z,66.07
2019-02-20T17:20:20.043Z,62.00
2019-02-20T17:22:48.726Z,58.87
2019-02-20T17:25:18.474Z,55.43
2019-02-20T17:27:47.143Z,55.97
2019-02-20T17:30:17.150Z,54.47
2019-02-20T17:32:46.317Z,49.20
2019-02-20T17:35:17.023Z,53.33
2019-02-20T17:37:45.466Z,46.70
2019-02-20T17:40:14.834Z,48.10
2019-02-20T17:42:43.485Z,75.63
2019-02-20T17:45:13.774Z,74.23
2019-02-20T17:47:43.051Z,52.20
2019-02-20T17:50:17.053Z,57.10
2019-02-20T17:52:45.663Z,36.20
2019-02-20T17:55:14.513Z,38.33
2019-02-20T17:57:43.043Z,30.97
2019-02-20T18:00:13.994Z,34.67
2019-02-20T18:02:42.602Z,42.47
2019-02-20T18:05:11.258Z,33.87
2019-02-20T18:07:48.348Z,36.70
2019-02-20T18:10:10.896Z,38.97
2019-02-20T18:12:39.539Z,37.67
2019-02-20T18:15:12.851Z,45.37
2019-02-20T18:17:41.567Z,39.43
2019-02-20T18:20:11.195Z,38.53
2019-02-20T18:22:39.886Z,47.40
2019-02-20T18:25:10.114Z,39.47
2019-02-20T18:27:38.792Z,42.27
2019-02-20T18:30:10.646Z,42.00
2019-02-20T18:32:39.257Z,43.27
2019-02-20T18:35:12.982Z,47.20
2019-02-20T18:37:41.612Z,39.93
2019-02-20T18:40:17.645Z,39.70
2019-02-20T18:42:46.262Z,43.07
2019-02-20T18:45:15.486Z,49.37
2019-02-20T18:47:44.294Z,46.90
2019-02-20T18:50:14.373Z,47.30
2019-02-20T18:52:43.000Z,42.87
2019-02-20T18:55:15.292Z,43.17
2019-02-20T18:57:43.954Z,49.40
2019-02-20T19:00:18.609Z,50.33
2019-02-20T19:02:47.201Z,45.47
2019-02-20T19:05:15.810Z,63.37
2019-02-20T19:07:44.350Z,72.07
2019-02-20T19:10:25.144Z,76.60
2019-02-20T19:13:02.340Z,83.83
2019-02-20T19:15:48.954Z,51.00
2019-02-20T19:18:35.311Z,42.23
2019-02-20T19:21:09.695Z,46.27
2019-02-20T19:24:00.939Z,49.23
2019-02-20T19:26:32.539Z,54.93
2019-02-20T19:29:09.792Z,56.70
2019-02-20T19:32:10.900Z,70.53
2019-02-20T19:34:51.684Z,69.50
2019-02-20T19:37:25.942Z,54.33
2019-02-20T19:39:57.593Z,57.57
2019-02-20T19:42:42.998Z,74.30
2019-02-20T19:45:32.061Z,54.17
2019-02-20T19:48:18.673Z,53.53
2019-02-20T19:50:55.924Z,48.30
2019-02-20T19:53:39.381Z,50.40
2019-02-20T19:56:30.494Z,49.50
2019-02-20T19:59:22.970Z,47.73
2019-02-20T20:02:28.158Z,47.07
2019-02-20T20:05:02.054Z,49.47
2019-02-20T20:07:48.989Z,49.13
2019-02-20T20:10:38.692Z,54.53
2019-02-20T20:13:15.964Z,61.33
2019-02-20T20:15:56.657Z,57.77
2019-02-20T20:18:40.106Z,63.27
2019-02-20T20:21:17.359Z,67.70
2019-02-20T20:24:11.103Z,61.37
2019-02-20T20:27:06.293Z,47.97
2019-02-20T20:30:01.729Z,50.10
2019-02-20T20:32:39.187Z,42.63
2019-02-20T20:35:44.572Z,38.43
2019-02-20T20:38:16.383Z,38.30
2019-02-20T20:41:02.778Z,40.77
2019-02-20T20:43:59.942Z,39.90
2019-02-20T20:46:31.566Z,39.40
2019-02-20T20:49:20.899Z,43.77
2019-02-20T20:52:01.431Z,51.97
2019-02-20T20:54:41.733Z,55.80
2019-02-20T20:57:21.987Z,52.93
2019-02-20T21:00:08.395Z,56.23
2019-02-20T21:02:39.959Z,64.00
2019-02-20T21:05:26.293Z,58.90
2019-02-20T21:08:12.770Z,51.43
2019-02-20T21:10:47.018Z,53.63
2019-02-20T21:13:34.962Z,49.47
2019-02-20T21:16:09.128Z,49.57
2019-02-20T21:18:58.534Z,55.37
2019-02-20T21:21:33.121Z,49.17
2019-02-20T21:24:39.218Z,50.73
2019-02-20T21:27:30.251Z,50.03
2019-02-20T21:30:04.826Z,53.00
2019-02-20T21:32:42.149Z,59.93
2019-02-20T21:35:25.785Z,58.33
2019-02-20T21:38:22.722Z,60.57
2019-02-20T21:41:16.553Z,52.27
2019-02-20T21:44:06.137Z,63.63
2019-02-20T21:47:01.437Z,64.83
2019-02-20T21:49:39.042Z,63.80
2019-02-20T21:52:31.801Z,57.03
2019-02-20T21:55:24.267Z,54.33
2019-02-20T21:58:10.790Z,49.17
2019-02-20T22:00:45.295Z,43.70
2019-02-20T22:03:34.731Z,40.17
2019-02-20T22:06:21.345Z,45.57
2019-02-20T22:09:01.650Z,43.33
2019-02-20T22:11:45.182Z,37.57
2019-02-20T22:14:28.526Z,41.97
2019-02-20T22:17:17.925Z,40.37
2019-02-20T22:20:01.517Z,42.83
2019-02-20T22:22:44.876Z,45.07
2019-02-20T22:25:40.521Z,43.63
2019-02-20T22:28:31.314Z,40.40
2019-02-20T22:31:23.650Z,37.63
2019-02-20T22:34:26.942Z,48.40
2019-02-20T22:37:07.403Z,48.30
2019-02-20T22:39:41.986Z,48.87
2019-02-20T22:42:25.538Z,47.60
2019-02-20T22:44:57.186Z,45.30
2019-02-20T22:47:57.089Z,37.37
2019-02-20T22:50:37.625Z,44.13
2019-02-20T22:53:12.105Z,46.57
2019-02-20T22:56:00.094Z,41.13
2019-02-20T22:58:31.713Z,41.73
2019-02-20T23:01:34.731Z,40.80
2019-02-20T23:04:18.366Z,40.03
2019-02-20T23:06:58.658Z,43.87
2019-02-20T23:09:45.353Z,44.73
2019-02-20T23:12:19.846Z,41.50
2019-02-20T23:14:53.240Z,35.57
2019-02-20T23:17:21.923Z,36.60
2019-02-20T23:19:50.483Z,32.77
2019-02-20T23:22:19.098Z,48.53
2019-02-20T23:24:47.637Z,38.97
2019-02-20T23:27:16.269Z,39.63
2019-02-20T23:29:46.353Z,47.43
2019-02-20T23:32:15.033Z,45.77
2019-02-20T23:34:43.602Z,44.03
2019-02-20T23:37:12.204Z,49.17
2019-02-20T23:39:40.741Z,44.10
2019-02-20T23:42:09.388Z,42.10
2019-02-20T23:44:37.958Z,40.40
2019-02-20T23:47:06.589Z,40.50
2019-02-20T23:49:35.165Z,39.40
2019-02-20T23:52:03.706Z,42.73
2019-02-20T23:54:32.787Z,40.60
2019-02-20T23:57:01.356Z,38.97
2019-02-20T23:59:29.974Z,38.47
